createdAt,value
2023-02-08T00:01:29.753Z,9.85
2023-02-08T00:03:58.127Z,9.38
2023-02-08T00:06:26.910Z,9.65
2023-02-08T00:08:55.472Z,9.45
2023-02-08T00:11:24.252Z,9.50
2023-02-08T00:13:52.807Z,9.88
2023-02-08T00:16:21.301Z,9.52
2023-02-08T00:18:51.137Z,8.65
2023-02-08T00:21:20.405Z,8.50
2023-02-08T00:23:49.521Z,8.32
2023-02-08T00:26:18.502Z,10.68
2023-02-08T00:28:47.297Z,9.57
2023-02-08T00:31:18.861Z,8.57
2023-02-08T00:33:47.311Z,9.35
2023-02-08T00:36:17.085Z,8.73
2023-02-08T00:38:45.422Z,8.48
2023-02-08T00:41:13.704Z,8.45
2023-02-08T00:43:42.118Z,8.65
2023-02-08T00:46:11.179Z,8.25
2023-02-08T00:48:39.731Z,8.75
2023-02-08T00:51:10.595Z,8.40
2023-02-08T00:53:43.447Z,8.82
2023-02-08T00:56:13.414Z,8.07
2023-02-08T00:58:43.092Z,8.75
2023-02-08T01:01:13.207Z,8.55
2023-02-08T01:03:43.486Z,9.57
2023-02-08T01:06:18.765Z,8.70
2023-02-08T01:08:48.584Z,9.10
2023-02-08T01:11:22.265Z,9.95
2023-02-08T01:13:51.093Z,8.88
2023-02-08T01:16:22.576Z,9.02
2023-02-08T01:18:53.637Z,9.57
2023-02-08T01:21:24.069Z,9.40
2023-02-08T01:23:54.152Z,8.98
2023-02-08T01:26:25.792Z,9.20
2023-02-08T01:28:55.887Z,8.90
2023-02-08T01:31:27.962Z,10.35
2023-02-08T01:33:56.574Z,9.30
2023-02-08T01:36:26.000Z,8.90
2023-02-08T01:38:56.013Z,9.75
2023-02-08T01:41:29.655Z,9.27
2023-02-08T01:44:07.535Z,9.43
2023-02-08T01:46:37.916Z,10.10
2023-02-08T01:49:12.005Z,7.90
2023-02-08T01:51:45.710Z,9.60
2023-02-08T01:54:18.323Z,9.90
2023-02-08T01:56:48.349Z,8.40
2023-02-08T01:59:22.511Z,9.48
2023-02-08T02:01:53.882Z,8.80
2023-02-08T02:04:22.782Z,9.18
2023-02-08T02:06:56.612Z,8.88
2023-02-08T02:09:33.095Z,8.20
2023-02-08T02:12:02.337Z,8.75
2023-02-08T02:14:32.384Z,9.35
2023-02-08T02:17:01.770Z,8.82
2023-02-08T02:19:41.973Z,9.50
2023-02-08T02:22:43.198Z,8.48
2023-02-08T02:25:55.613Z,8.65
2023-02-08T02:29:18.401Z,7.78
2023-02-08T02:32:16.985Z,8.60
2023-02-08T02:34:51.132Z,8.27
2023-02-08T02:37:38.763Z,8.07
2023-02-08T02:40:21.449Z,11.10
2023-02-08T02:43:20.487Z,9.90
2023-02-08T02:45:57.947Z,9.07
2023-02-08T02:48:32.827Z,8.32
2023-02-08T02:53:38.902Z,8.60
2023-02-08T02:56:15.048Z,8.47
2023-02-08T02:58:44.398Z,8.25
2023-02-08T03:01:13.625Z,8.63
2023-02-08T03:03:43.635Z,8.90
2023-02-08T03:06:18.095Z,8.38
2023-02-08T03:09:10.126Z,9.07
2023-02-08T03:11:39.872Z,8.60
2023-02-08T03:14:35.191Z,9.68
2023-02-08T03:17:31.464Z,8.75
2023-02-08T03:20:08.504Z,8.65
2023-02-08T03:22:47.072Z,9.30
2023-02-08T03:25:23.382Z,8.20
2023-02-08T03:28:02.948Z,8.63
2023-02-08T03:30:35.521Z,8.48
2023-02-08T03:33:13.505Z,8.32
2023-02-08T03:35:50.233Z,8.43
2023-02-08T03:38:24.689Z,9.05
2023-02-08T03:40:56.313Z,9.13
2023-02-08T03:43:28.572Z,9.43
2023-02-08T03:46:08.886Z,10.68
2023-02-08T03:48:40.471Z,9.02
2023-02-08T03:51:11.134Z,9.48
2023-02-08T03:53:41.110Z,9.27
2023-02-08T03:56:15.015Z,9.27
2023-02-08T03:58:48.324Z,9.68
2023-02-08T04:01:24.802Z,9.27
2023-02-08T04:03:56.482Z,12.23
2023-02-08T04:06:26.622Z,13.95
2023-02-08T04:08:56.076Z,10.57
2023-02-08T04:11:24.440Z,12.27
2023-02-08T04:13:52.707Z,11.48
2023-02-08T04:16:21.072Z,11.73
2023-02-08T04:18:49.288Z,10.18
2023-02-08T04:21:17.861Z,9.68
2023-02-08T04:23:47.564Z,11.73
2023-02-08T04:26:15.877Z,12.15
2023-02-08T04:28:44.125Z,12.75
2023-02-08T04:31:12.452Z,11.05
2023-02-08T04:33:40.832Z,9.90
2023-02-08T04:36:09.651Z,9.60
2023-02-08T04:38:38.315Z,10.35
2023-02-08T04:41:07.988Z,9.93
2023-02-08T04:43:36.481Z,9.95
2023-02-08T04:46:04.983Z,10.43
2023-02-08T04:48:33.436Z,9.32
2023-02-08T04:51:01.779Z,9.30
2023-02-08T04:53:30.510Z,12.85
2023-02-08T04:55:58.866Z,9.65
2023-02-08T04:58:28.684Z,9.23
2023-02-08T05:00:56.992Z,9.23
2023-02-08T05:03:25.299Z,9.73
2023-02-08T05:05:58.957Z,9.27
2023-02-08T05:08:28.246Z,9.48
2023-02-08T05:10:56.624Z,9.32
2023-02-08T05:13:24.974Z,8.43
2023-02-08T05:15:54.643Z,9.50
2023-02-08T05:18:23.269Z,9.88
2023-02-08T05:21:00.283Z,11.07
2023-02-08T05:23:29.350Z,9.85
2023-02-08T05:25:57.648Z,10.00
2023-02-08T05:28:26.508Z,10.45
2023-02-08T05:30:56.153Z,9.23
2023-02-08T05:33:24.463Z,9.57
2023-02-08T05:35:52.734Z,10.35
2023-02-08T05:38:21.082Z,9.57
2023-02-08T05:40:49.413Z,10.43
2023-02-08T05:43:17.710Z,9.40
2023-02-08T05:45:46.057Z,10.30
2023-02-08T05:48:15.740Z,10.70
2023-02-08T05:50:44.441Z,10.05
2023-02-08T05:53:15.924Z,10.10
2023-02-08T05:55:46.218Z,11.50
2023-02-08T05:58:14.513Z,10.80
2023-02-08T06:00:43.001Z,11.15
2023-02-08T06:03:11.505Z,9.88
2023-02-08T06:05:42.044Z,9.95
2023-02-08T06:08:10.864Z,9.50
2023-02-08T06:10:39.419Z,10.43
2023-02-08T06:13:08.052Z,10.43
2023-02-08T06:15:36.346Z,10.30
2023-02-08T06:18:04.871Z,10.52
2023-02-08T06:20:34.117Z,11.10
2023-02-08T06:23:03.768Z,11.48
2023-02-08T06:25:32.380Z,10.63
2023-02-08T06:28:00.785Z,9.88
2023-02-08T06:30:29.601Z,10.35
2023-02-08T06:32:58.381Z,10.77
2023-02-08T06:35:26.748Z,10.77
2023-02-08T06:37:55.353Z,11.60
2023-02-08T06:40:25.111Z,11.10
2023-02-08T06:42:53.495Z,10.35
2023-02-08T06:45:52.999Z,11.07
2023-02-08T06:48:24.866Z,10.45
2023-02-08T06:50:56.911Z,11.45
2023-02-08T06:53:25.452Z,10.73
2023-02-08T06:55:55.187Z,10.45
2023-02-08T06:58:24.074Z,11.27
2023-02-08T07:00:52.475Z,9.95
2023-02-08T07:03:22.517Z,11.48
2023-02-08T07:06:04.101Z,11.68
2023-02-08T07:08:35.263Z,11.02
2023-02-08T07:11:09.498Z,12.80
2023-02-08T07:13:39.679Z,14.65
2023-02-08T07:16:10.234Z,10.88
2023-02-08T07:18:38.996Z,10.90
2023-02-08T07:21:08.073Z,11.52
2023-02-08T07:23:36.367Z,11.00
2023-02-08T07:26:08.705Z,10.82
2023-02-08T07:28:37.644Z,11.00
2023-02-08T07:31:07.178Z,9.93
2023-02-08T07:33:35.771Z,11.68
2023-02-08T07:36:05.338Z,11.98
2023-02-08T07:38:34.560Z,12.00
2023-02-08T07:41:03.772Z,13.43
2023-02-08T07:43:35.506Z,12.77
2023-02-08T07:46:09.751Z,18.05
2023-02-08T07:48:40.217Z,13.82
2023-02-08T07:51:10.125Z,11.15
2023-02-08T07:53:38.874Z,11.68
2023-02-08T07:56:08.132Z,11.20
2023-02-08T07:58:38.135Z,12.48
2023-02-08T08:01:20.971Z,10.82
2023-02-08T08:03:50.648Z,11.68
2023-02-08T08:06:19.795Z,11.23
2023-02-08T08:08:48.063Z,12.43
2023-02-08T08:11:17.819Z,12.93
2023-02-08T08:13:47.614Z,11.32
2023-02-08T08:16:16.224Z,10.98
2023-02-08T08:18:44.718Z,10.43
2023-02-08T08:21:13.800Z,11.73
2023-02-08T08:23:42.283Z,10.95
2023-02-08T08:26:14.893Z,11.00
2023-02-08T08:28:44.509Z,11.98
2023-02-08T08:31:20.301Z,12.20
2023-02-08T08:33:49.725Z,11.52
2023-02-08T08:36:18.137Z,11.10
2023-02-08T08:38:46.616Z,11.43
2023-02-08T08:41:18.790Z,11.02
2023-02-08T08:43:47.361Z,11.20
2023-02-08T08:46:17.775Z,11.48
2023-02-08T08:48:46.769Z,10.10
2023-02-08T08:51:15.741Z,10.90
2023-02-08T08:53:44.416Z,10.50
2023-02-08T08:56:13.193Z,12.35
2023-02-08T08:58:43.278Z,11.00
2023-02-08T09:01:13.253Z,10.88
2023-02-08T09:03:42.838Z,11.32
2023-02-08T09:06:11.861Z,11.07
2023-02-08T09:08:40.232Z,10.57
2023-02-08T09:11:11.360Z,10.73
2023-02-08T09:13:40.210Z,10.95
2023-02-08T09:16:11.737Z,13.93
2023-02-08T09:18:41.807Z,11.40
2023-02-08T09:21:12.949Z,10.77
2023-02-08T09:23:41.251Z,10.85
2023-02-08T09:26:17.007Z,12.02
2023-02-08T09:28:46.052Z,10.55
2023-02-08T09:31:22.255Z,10.52
2023-02-08T09:33:54.015Z,11.32
2023-02-08T09:36:24.566Z,11.02
2023-02-08T09:38:57.901Z,11.27
2023-02-08T09:41:53.911Z,10.18
2023-02-08T09:44:29.943Z,10.98
2023-02-08T09:47:03.291Z,10.85
2023-02-08T09:49:38.079Z,11.07
2023-02-08T09:52:12.628Z,11.48
2023-02-08T09:54:46.214Z,11.18
2023-02-08T09:57:19.885Z,11.68
2023-02-08T09:59:54.274Z,10.98
2023-02-08T10:02:27.488Z,10.82
2023-02-08T10:05:04.848Z,11.60
2023-02-08T10:07:34.584Z,11.20
2023-02-08T10:10:07.337Z,11.38
2023-02-08T10:12:46.971Z,11.82
2023-02-08T10:15:29.543Z,10.75
2023-02-08T10:18:24.283Z,11.13
2023-02-08T10:21:19.917Z,8.63
2023-02-08T10:24:12.200Z,10.65
2023-02-08T10:26:49.229Z,11.57
2023-02-08T10:29:45.978Z,10.75
2023-02-08T10:32:35.903Z,12.32
2023-02-08T10:35:09.272Z,10.20
2023-02-08T10:37:42.704Z,9.95
2023-02-08T10:40:33.071Z,10.55
2023-02-08T10:43:16.719Z,11.65
2023-02-08T10:45:54.257Z,11.15
2023-02-08T10:48:36.450Z,10.70
2023-02-08T10:51:05.286Z,11.20
2023-02-08T10:53:35.188Z,10.60
2023-02-08T10:56:05.110Z,10.93
2023-02-08T10:58:34.069Z,12.02
2023-02-08T11:01:03.683Z,10.95
2023-02-08T11:03:32.734Z,11.52
2023-02-08T11:06:01.108Z,10.13
2023-02-08T11:08:29.658Z,10.00
2023-02-08T11:11:05.094Z,10.05
2023-02-08T11:13:36.968Z,10.85
2023-02-08T11:16:07.841Z,10.52
2023-02-08T11:18:39.447Z,9.88
2023-02-08T11:21:22.488Z,9.85
2023-02-08T11:23:54.024Z,8.45
2023-02-08T11:26:33.577Z,9.43
2023-02-08T11:29:05.976Z,8.35
2023-02-08T11:31:36.192Z,9.00
2023-02-08T11:34:09.242Z,8.00
2023-02-08T11:36:47.381Z,7.93
2023-02-08T11:39:22.552Z,8.68
2023-02-08T11:41:55.186Z,8.57
2023-02-08T11:44:28.725Z,8.38
2023-02-08T11:46:59.786Z,9.52
2023-02-08T11:49:39.211Z,8.98
2023-02-08T11:52:19.626Z,8.52
2023-02-08T11:54:48.587Z,9.48
2023-02-08T11:57:21.634Z,9.05
2023-02-08T11:59:52.348Z,8.45
2023-02-08T12:02:37.034Z,8.52
2023-02-08T12:05:13.399Z,7.32
2023-02-08T12:08:05.761Z,6.13
2023-02-08T12:11:17.078Z,6.65
2023-02-08T12:14:13.348Z,6.85
2023-02-08T12:17:00.866Z,6.93
2023-02-08T12:20:05.341Z,6.13
2023-02-08T12:22:34.008Z,5.43
2023-02-08T12:25:22.308Z,5.00
2023-02-08T12:28:00.102Z,5.57
2023-02-08T12:30:35.985Z,5.13
2023-02-08T12:33:44.125Z,5.13
2023-02-08T12:36:30.713Z,7.35
2023-02-08T12:39:30.465Z,6.55
2023-02-08T12:42:20.106Z,10.93
2023-02-08T12:45:10.858Z,5.03
2023-02-08T12:48:04.306Z,5.15
2023-02-08T12:50:42.984Z,5.60
2023-02-08T12:53:22.346Z,5.30
2023-02-08T12:55:53.244Z,5.05
2023-02-08T12:58:30.166Z,5.80
2023-02-08T13:01:06.661Z,5.60
2023-02-08T13:03:46.679Z,4.88
2023-02-08T13:06:19.959Z,4.75
2023-02-08T13:08:55.287Z,7.90
2023-02-08T13:11:34.321Z,6.43
2023-02-08T13:14:08.296Z,5.63
2023-02-08T13:16:43.777Z,5.38
2023-02-08T13:19:30.902Z,5.40
2023-02-08T13:22:01.066Z,4.63
2023-02-08T13:24:36.486Z,5.10
2023-02-08T13:27:07.324Z,4.82
2023-02-08T13:29:37.249Z,5.22
2023-02-08T13:32:11.861Z,5.10
2023-02-08T13:34:46.796Z,6.43
2023-02-08T13:40:03.132Z,5.20
2023-02-08T13:42:38.059Z,5.38
2023-02-08T13:45:09.482Z,5.82
2023-02-08T13:47:45.581Z,5.43
2023-02-08T13:50:46.404Z,5.13
2023-02-08T13:53:17.375Z,5.55
2023-02-08T13:56:08.963Z,5.30
2023-02-08T13:59:01.334Z,5.57
2023-02-08T14:01:31.490Z,5.20
2023-02-08T14:04:32.977Z,4.97
2023-02-08T14:07:17.027Z,6.32
2023-02-08T14:09:52.827Z,5.70
2023-02-08T14:12:34.598Z,6.05
2023-02-08T14:15:34.899Z,6.22
2023-02-08T14:18:04.517Z,6.13
2023-02-08T14:20:40.087Z,5.82
2023-02-08T14:23:24.916Z,7.53
2023-02-08T14:25:56.240Z,7.05
2023-02-08T14:28:32.594Z,6.43
2023-02-08T14:31:04.288Z,6.38
2023-02-08T14:33:35.750Z,6.80
2023-02-08T14:36:08.494Z,6.70
2023-02-08T14:39:22.691Z,6.80
2023-02-08T14:41:55.215Z,6.80
2023-02-08T14:45:05.573Z,6.93
2023-02-08T14:47:57.101Z,8.15
2023-02-08T14:50:32.723Z,6.72
2023-02-08T14:53:15.457Z,7.43
2023-02-08T14:55:51.724Z,6.93
2023-02-08T14:58:31.214Z,6.57
2023-02-08T15:01:05.027Z,7.78
2023-02-08T15:03:36.390Z,7.60
2023-02-08T15:07:00.189Z,8.25
2023-02-08T15:09:32.600Z,6.80
2023-02-08T15:12:06.249Z,6.80
2023-02-08T15:14:37.614Z,6.88
2023-02-08T15:17:07.171Z,6.80
2023-02-08T15:19:38.575Z,7.25
2023-02-08T15:22:31.279Z,7.10
2023-02-08T15:25:02.289Z,8.00
2023-02-08T15:27:34.537Z,7.70
2023-02-08T15:30:03.486Z,7.03
2023-02-08T15:32:32.079Z,8.02
2023-02-08T15:35:02.549Z,7.95
2023-02-08T15:37:35.390Z,8.30
2023-02-08T15:40:04.662Z,7.25
2023-02-08T15:42:35.869Z,7.75
2023-02-08T15:45:04.533Z,7.32
2023-02-08T15:47:36.189Z,7.22
2023-02-08T15:50:08.568Z,6.70
2023-02-08T15:52:38.486Z,6.43
2023-02-08T15:55:10.338Z,7.40
2023-02-08T15:57:44.906Z,7.22
2023-02-08T16:00:18.382Z,8.35
2023-02-08T16:02:54.782Z,8.43
2023-02-08T16:05:27.129Z,7.70
2023-02-08T16:07:56.899Z,9.60
2023-02-08T16:10:36.679Z,9.57
2023-02-08T16:13:14.524Z,8.60
2023-02-08T16:15:46.247Z,8.70
2023-02-08T16:18:41.092Z,7.78
2023-02-08T16:21:28.817Z,7.68
2023-02-08T16:23:59.431Z,8.13
2023-02-08T16:26:31.793Z,8.65
2023-02-08T16:29:04.434Z,9.40
2023-02-08T16:31:36.224Z,8.32
2023-02-08T16:34:07.308Z,9.48
2023-02-08T16:36:40.716Z,8.98
2023-02-08T16:40:02.405Z,12.80
2023-02-08T16:42:35.843Z,9.52
2023-02-08T16:45:19.544Z,9.90
2023-02-08T16:47:52.708Z,9.68
2023-02-08T16:50:24.190Z,9.45
2023-02-08T16:52:57.682Z,9.75
2023-02-08T16:55:29.220Z,8.57
2023-02-08T16:57:59.535Z,8.85
2023-02-08T17:00:31.992Z,8.45
2023-02-08T17:03:01.175Z,9.32
2023-02-08T17:05:32.846Z,8.57
2023-02-08T17:08:01.480Z,9.07
2023-02-08T17:10:34.433Z,8.98
2023-02-08T17:13:19.191Z,8.70
2023-02-08T17:15:51.708Z,9.57
2023-02-08T17:18:20.809Z,8.57
2023-02-08T17:20:49.668Z,9.18
2023-02-08T17:23:17.956Z,9.90
2023-02-08T17:25:46.575Z,9.25
2023-02-08T17:28:18.712Z,11.90
2023-02-08T17:30:50.206Z,11.90
2023-02-08T17:33:19.028Z,10.35
2023-02-08T17:35:49.246Z,9.77
2023-02-08T17:38:18.627Z,10.07
2023-02-08T17:40:47.663Z,10.32
2023-02-08T17:43:16.456Z,10.43
2023-02-08T17:45:45.941Z,11.45
2023-02-08T17:48:16.585Z,10.10
2023-02-08T17:50:51.178Z,10.35
2023-02-08T17:53:20.684Z,10.63
2023-02-08T17:55:49.388Z,10.18
2023-02-08T17:58:18.086Z,11.32
2023-02-08T18:00:46.722Z,9.65
2023-02-08T18:03:17.275Z,9.88
2023-02-08T18:05:45.722Z,10.32
2023-02-08T18:08:14.588Z,9.98
2023-02-08T18:10:43.488Z,9.52
2023-02-08T18:13:11.930Z,10.90
2023-02-08T18:15:40.336Z,11.57
2023-02-08T18:18:08.655Z,10.27
2023-02-08T18:20:38.470Z,11.05
2023-02-08T18:23:06.725Z,11.05
2023-02-08T18:25:35.161Z,10.60
2023-02-08T18:28:03.821Z,10.60
2023-02-08T18:30:32.422Z,10.10
2023-02-08T18:33:00.864Z,10.57
2023-02-08T18:35:30.284Z,10.40
2023-02-08T18:38:00.092Z,10.40
2023-02-08T18:40:29.042Z,11.07
2023-02-08T18:42:58.409Z,16.15
2023-02-08T18:45:27.053Z,11.85
2023-02-08T18:47:55.579Z,16.02
2023-02-08T18:50:24.004Z,11.80
2023-02-08T18:52:52.601Z,10.57
2023-02-08T18:55:22.764Z,25.83
2023-02-08T18:57:51.770Z,11.15
2023-02-08T19:00:21.388Z,10.63
2023-02-08T19:02:49.774Z,10.70
2023-02-08T19:05:18.218Z,11.90
2023-02-08T19:07:46.507Z,12.95
2023-02-08T19:10:15.133Z,11.98
2023-02-08T19:12:45.521Z,12.18
2023-02-08T19:15:13.764Z,11.27
2023-02-08T19:17:43.656Z,11.77
2023-02-08T19:20:12.841Z,11.48
2023-02-08T19:22:41.263Z,11.82
2023-02-08T19:25:10.200Z,11.38
2023-02-08T19:27:38.764Z,11.10
2023-02-08T19:30:10.856Z,11.88
2023-02-08T19:32:39.313Z,15.77
2023-02-08T19:35:08.391Z,13.85
2023-02-08T19:37:40.236Z,12.73
2023-02-08T19:40:10.958Z,12.75
2023-02-08T19:42:39.332Z,11.63
2023-02-08T19:45:10.962Z,13.60
2023-02-08T19:47:51.064Z,19.42
2023-02-08T19:50:20.580Z,13.15
2023-02-08T19:52:48.989Z,12.20
2023-02-08T19:55:17.423Z,12.00
2023-02-08T19:57:45.683Z,12.68
2023-02-08T20:00:23.829Z,11.52
2023-02-08T20:02:52.729Z,11.30
2023-02-08T20:05:21.225Z,11.90
2023-02-08T20:07:49.496Z,13.18
2023-02-08T20:10:17.975Z,13.05
2023-02-08T20:12:46.284Z,12.13
2023-02-08T20:15:16.087Z,12.13
2023-02-08T20:17:45.603Z,12.55
2023-02-08T20:20:18.293Z,12.43
2023-02-08T20:22:46.684Z,13.73
2023-02-08T20:25:14.952Z,11.98
2023-02-08T20:27:43.249Z,12.93
2023-02-08T20:30:12.890Z,12.55
2023-02-08T20:32:43.851Z,12.35
2023-02-08T20:35:12.472Z,12.13
2023-02-08T20:37:41.208Z,12.13
2023-02-08T20:40:12.529Z,12.15
2023-02-08T20:42:40.942Z,11.85
2023-02-08T20:45:11.435Z,12.05
2023-02-08T20:47:46.628Z,13.18
2023-02-08T20:50:19.355Z,13.02
2023-02-08T20:52:49.250Z,13.23
2023-02-08T20:55:17.874Z,12.32
2023-02-08T20:57:46.299Z,13.68
2023-02-08T21:00:16.041Z,12.52
2023-02-08T21:02:45.968Z,14.25
2023-02-08T21:05:14.331Z,13.25
2023-02-08T21:07:43.158Z,13.02
2023-02-08T21:10:11.706Z,13.85
2023-02-08T21:12:40.037Z,14.25
2023-02-08T21:15:10.740Z,13.98
2023-02-08T21:17:40.946Z,14.80
2023-02-08T21:20:12.856Z,14.13
2023-02-08T21:22:41.150Z,24.23
2023-02-08T21:25:10.615Z,15.20
2023-02-08T21:27:39.239Z,14.00
2023-02-08T21:30:08.425Z,14.48
2023-02-08T21:32:36.792Z,13.27
2023-02-08T21:35:05.743Z,14.50
2023-02-08T21:37:36.092Z,21.38
2023-02-08T21:40:05.021Z,16.73
2023-02-08T21:42:34.594Z,14.52
2023-02-08T21:45:02.920Z,16.80
2023-02-08T21:47:31.573Z,14.57
2023-02-08T21:50:17.161Z,14.07
2023-02-08T21:53:04.700Z,14.82
2023-02-08T21:55:33.084Z,14.05
2023-02-08T21:58:01.374Z,19.48
2023-02-08T22:00:29.905Z,17.65
2023-02-08T22:02:58.306Z,16.45
2023-02-08T22:05:26.852Z,14.73
2023-02-08T22:07:59.318Z,15.25
2023-02-08T22:10:31.067Z,14.70
2023-02-08T22:13:00.372Z,14.63
2023-02-08T22:15:30.866Z,14.60
2023-02-08T22:18:02.137Z,14.45
2023-02-08T22:20:31.017Z,14.73
2023-02-08T22:23:02.111Z,14.93
2023-02-08T22:25:30.645Z,14.98
2023-02-08T22:27:59.518Z,15.32
2023-02-08T22:30:28.079Z,15.20
2023-02-08T22:32:56.379Z,14.60
2023-02-08T22:35:24.936Z,14.85
2023-02-08T22:37:53.441Z,14.27
2023-02-08T22:40:23.232Z,13.93
2023-02-08T22:42:51.747Z,15.23
2023-02-08T22:45:20.297Z,14.18
2023-02-08T22:47:48.593Z,14.65
2023-02-08T22:50:17.035Z,14.20
2023-02-08T22:52:45.310Z,14.48
2023-02-08T22:55:13.922Z,14.13
2023-02-08T22:57:43.973Z,13.88
2023-02-08T23:00:16.496Z,13.43
2023-02-08T23:02:44.919Z,14.88
2023-02-08T23:05:14.681Z,13.15
2023-02-08T23:07:42.961Z,13.93
2023-02-08T23:10:14.906Z,12.77
2023-02-08T23:12:44.632Z,14.05
2023-02-08T23:15:13.157Z,23.17
2023-02-08T23:17:41.463Z,18.75
2023-02-08T23:20:11.250Z,14.85
2023-02-08T23:22:39.611Z,13.35
2023-02-08T23:25:09.103Z,15.07
2023-02-08T23:27:37.676Z,13.02
2023-02-08T23:30:09.777Z,13.73
2023-02-08T23:32:38.298Z,13.68
2023-02-08T23:35:07.681Z,13.93
2023-02-08T23:37:35.940Z,13.68
2023-02-08T23:40:04.817Z,13.60
2023-02-08T23:42:33.574Z,14.15
2023-02-08T23:45:02.377Z,14.10
2023-02-08T23:47:33.343Z,13.57
2023-02-08T23:50:01.911Z,15.35
2023-02-08T23:52:30.189Z,15.02
2023-02-08T23:54:58.400Z,13.88
2023-02-08T23:57:26.895Z,13.50
2023-02-08T23:59:55.124Z,14.85
